Time;durP1;ratioP1;P1;durP2;ratioP2;P2;SDS_P1;SDS_P2;PMS_P1;PMS_P2;Temp;Humidity;BMP_temperature;BMP_pressure;BME280_temperature;BME280_humidity;BME280_pressure;Samples;Min_cycle;Max_cycle;Signal;HPM_P1;HPM_P2
2022/09/12 00:04:52;;;;;;;9.17;8.17;;;14.80;99.90;;;;;;10424215;28;20218;-72
2022/09/12 00:09:53;;;;;;;8.97;8.07;;;14.70;99.90;;;;;;10436630;28;20220;-72
2022/09/12 00:14:53;;;;;;;9.23;8.33;;;14.60;99.90;;;;;;10439987;28;20239;-73
2022/09/12 00:19:54;;;;;;;9.60;8.47;;;14.50;99.90;;;;;;10435529;28;20315;-73
2022/09/12 00:24:55;;;;;;;10.43;9.43;;;14.50;99.90;;;;;;10438815;28;20243;-72
2022/09/12 00:29:55;;;;;;;11.60;8.20;;;14.50;99.90;;;;;;10424574;28;20271;-73
2022/09/12 00:34:56;;;;;;;9.17;8.20;;;14.50;99.90;;;;;;10435503;28;20745;-69
2022/09/12 00:39:57;;;;;;;12.03;8.40;;;14.40;99.90;;;;;;10433237;28;20225;-69
2022/09/12 00:44:57;;;;;;;9.30;8.30;;;14.30;99.90;;;;;;10439608;28;20300;-72
2022/09/12 00:50:12;;;;;;;9.30;8.33;;;14.20;99.90;;;;;;10438540;28;20726;-73
2022/09/12 00:55:21;;;;;;;10.00;8.77;;;14.20;99.90;;;;;;10438109;28;20226;-71
2022/09/12 01:00:24;;;;;;;10.97;9.03;;;14.20;99.90;;;;;;10432282;28;20211;-70
2022/09/12 01:05:27;;;;;;;11.23;8.63;;;14.20;99.90;;;;;;10434195;28;20220;-69
2022/09/12 01:10:27;;;;;;;9.00;8.10;;;14.10;99.90;;;;;;10433754;28;20220;-69
2022/09/12 01:15:29;;;;;;;9.83;8.27;;;14.10;99.90;;;;;;10435556;28;20852;-68
2022/09/12 01:20:38;;;;;;;10.27;8.40;;;14.00;99.90;;;;;;10433351;28;20228;-69
2022/09/12 01:26:09;;;;;;;12.60;9.03;;;14.00;99.90;;;;;;10411582;28;20285;-70
2022/09/12 01:31:18;;;;;;;9.80;8.67;;;13.90;99.90;;;;;;10430308;28;20230;-70
2022/09/12 01:36:37;;;;;;;10.47;8.77;;;13.80;99.90;;;;;;10429772;28;20609;-71
2022/09/12 01:41:43;;;;;;;9.00;8.10;;;13.70;99.90;;;;;;10430973;28;20221;-71
2022/09/12 01:47:07;;;;;;;10.63;8.93;;;13.70;99.90;;;;;;10423966;28;20211;-71
2022/09/12 01:52:20;;;;;;;9.97;8.97;;;13.70;99.90;;;;;;10425502;28;20212;-71
2022/09/12 01:57:40;;;;;;;9.10;8.17;;;13.70;99.90;;;;;;10434332;28;20419;-70
2022/09/12 02:02:57;;;;;;;9.33;8.33;;;13.70;99.90;;;;;;10420898;28;20713;-71
2022/09/12 02:08:06;;;;;;;11.30;8.57;;;13.60;99.90;;;;;;10434051;28;20592;-72
2022/09/12 02:13:56;;;;;;;11.57;9.17;;;13.60;99.90;;;;;;10427007;28;20212;-70
2022/09/12 02:19:02;;;;;;;10.80;8.50;;;13.50;99.90;;;;;;10403216;28;20228;-70
2022/09/12 02:24:08;;;;;;;9.97;8.70;;;13.50;99.90;;;;;;10430350;28;20624;-70
2022/09/12 02:29:08;;;;;;;9.13;8.20;;;13.50;99.90;;;;;;10424191;28;20226;-71
2022/09/12 02:34:20;;;;;;;8.73;7.93;;;13.50;99.90;;;;;;10435045;28;20302;-71
2022/09/12 02:39:21;;;;;;;9.83;8.30;;;13.50;99.90;;;;;;10430015;28;20224;-71
2022/09/12 02:44:24;;;;;;;8.30;7.50;;;13.40;99.90;;;;;;10431399;28;20324;-71
2022/09/12 02:49:24;;;;;;;10.37;9.37;;;13.40;99.90;;;;;;10436134;28;20220;-71
2022/09/12 02:54:26;;;;;;;10.13;8.27;;;13.30;99.90;;;;;;10430540;28;20212;-70
2022/09/12 02:59:27;;;;;;;9.73;8.73;;;13.20;99.90;;;;;;10451760;28;20282;-70
2022/09/12 03:04:47;;;;;;;12.03;8.73;;;13.20;99.90;;;;;;10422604;28;20209;-70
2022/09/12 03:10:06;;;;;;;10.83;8.70;;;13.10;99.90;;;;;;10431495;28;20223;-71
2022/09/12 03:15:42;;;;;;;9.50;8.60;;;13.10;99.90;;;;;;10434622;28;20282;-71
2022/09/12 03:21:03;;;;;;;12.37;9.13;;;13.10;99.90;;;;;;10417628;28;20235;-71
2022/09/12 03:26:14;;;;;;;9.73;8.73;;;13.10;99.90;;;;;;10431003;28;20275;-71
2022/09/12 03:31:18;;;;;;;8.63;7.83;;;13.10;99.90;;;;;;10428057;28;20625;-69
2022/09/12 03:36:22;;;;;;;12.20;8.93;;;13.10;99.90;;;;;;10426420;28;20240;-71
2022/09/12 03:41:23;;;;;;;10.50;9.43;;;13.00;99.90;;;;;;10420397;28;20247;-70
2022/09/12 03:46:24;;;;;;;12.33;9.23;;;13.00;99.90;;;;;;10443037;28;20738;-70
2022/09/12 03:51:24;;;;;;;11.13;8.53;;;12.90;99.90;;;;;;10439581;28;20223;-70
2022/09/12 03:56:25;;;;;;;10.70;9.37;;;12.90;99.90;;;;;;10434237;28;20610;-69
2022/09/12 04:01:25;;;;;;;9.73;8.73;;;13.00;99.90;;;;;;10418556;28;20245;-67
2022/09/12 04:06:26;;;;;;;11.33;8.67;;;13.00;99.90;;;;;;10434595;28;20212;-71
2022/09/12 04:11:26;;;;;;;11.83;9.40;;;12.90;99.90;;;;;;10424404;28;20303;-69
2022/09/12 04:16:27;;;;;;;11.10;9.33;;;12.90;99.90;;;;;;10433826;28;20217;-69
2022/09/12 04:21:28;;;;;;;12.23;9.90;;;12.90;99.90;;;;;;10440542;28;20714;-69
2022/09/12 04:26:30;;;;;;;11.03;9.67;;;12.90;99.90;;;;;;10433262;28;20236;-69
2022/09/12 04:31:31;;;;;;;9.40;8.50;;;12.90;99.90;;;;;;10440274;28;20305;-70
2022/09/12 04:36:33;;;;;;;10.47;9.40;;;12.90;99.90;;;;;;10432559;28;20278;-70
2022/09/12 04:41:35;;;;;;;9.60;8.60;;;12.90;99.90;;;;;;10430843;28;20255;-70
2022/09/12 04:46:39;;;;;;;13.10;8.57;;;12.80;99.90;;;;;;10445352;28;20278;-70
2022/09/12 04:51:41;;;;;;;9.83;8.13;;;12.80;99.90;;;;;;10426004;28;20221;-70
2022/09/12 04:56:47;;;;;;;9.97;8.23;;;12.80;99.90;;;;;;10439307;28;20266;-70
2022/09/12 05:01:48;;;;;;;15.43;8.93;;;12.70;99.90;;;;;;10433331;28;20229;-69
2022/09/12 05:06:49;;;;;;;11.10;8.60;;;12.70;99.90;;;;;;10438803;28;20603;-69
2022/09/12 05:11:49;;;;;;;11.10;8.47;;;12.80;99.90;;;;;;10431714;28;20314;-69
2022/09/12 05:16:50;;;;;;;11.80;9.00;;;12.80;99.90;;;;;;10432031;28;20216;-68
2022/09/12 05:21:50;;;;;;;9.87;8.87;;;12.90;99.90;;;;;;10436955;28;21052;-68
2022/09/12 05:26:51;;;;;;;8.77;7.87;;;13.00;99.90;;;;;;10431044;28;20315;-72
2022/09/12 05:31:52;;;;;;;8.40;7.50;;;13.10;99.90;;;;;;10429499;28;20235;-73
2022/09/12 05:36:53;;;;;;;11.13;8.00;;;13.20;99.90;;;;;;10436917;28;20232;-72
2022/09/12 05:41:53;;;;;;;9.57;8.57;;;13.20;99.90;;;;;;10431505;28;20212;-73
2022/09/12 05:46:54;;;;;;;11.33;8.70;;;13.40;99.90;;;;;;10432909;28;20216;-72
2022/09/12 05:51:54;;;;;;;8.93;7.43;;;13.40;99.90;;;;;;10426571;28;20213;-73
2022/09/12 05:56:55;;;;;;;10.80;7.93;;;13.60;99.90;;;;;;10422836;28;20215;-73
2022/09/12 06:01:56;;;;;;;10.90;7.70;;;13.80;99.90;;;;;;10433993;28;20286;-73
2022/09/12 06:06:56;;;;;;;8.53;7.23;;;14.00;99.90;;;;;;10431444;28;20224;-74
2022/09/12 06:11:57;;;;;;;6.40;5.80;;;15.10;99.90;;;;;;10437331;28;20224;-74
2022/09/12 06:17:33;;;;;;;7.33;5.97;;;18.10;99.90;;;;;;10471349;28;20566;-72
2022/09/12 06:22:41;;;;;;;7.87;6.20;;;18.00;99.90;;;;;;10471357;28;20570;-74
2022/09/12 06:27:41;;;;;;;9.33;5.97;;;17.00;99.90;;;;;;10467978;28;20220;-73
2022/09/12 06:32:42;;;;;;;10.47;5.93;;;17.10;99.90;;;;;;10471740;28;20592;-74
2022/09/12 06:37:45;;;;;;;10.57;6.63;;;17.20;99.90;;;;;;10462577;28;20592;-74
2022/09/12 06:42:46;;;;;;;9.90;7.17;;;17.00;99.90;;;;;;10468834;28;20239;-74
2022/09/12 06:47:46;;;;;;;10.53;7.57;;;17.10;99.90;;;;;;10467199;28;20227;-74
2022/09/12 06:55:32;;;;;;;10.10;7.27;;;16.70;99.90;;;;;;10471912;28;20565;-73
2022/09/12 07:00:33;;;;;;;9.97;7.27;;;16.70;99.90;;;;;;10488692;28;20215;-73
2022/09/12 07:06:37;;;;;;;12.27;7.97;;;16.80;99.90;;;;;;10456843;28;20584;-73
2022/09/12 07:11:39;;;;;;;12.83;8.17;;;17.20;99.90;;;;;;10427210;28;20216;-73
2022/09/12 07:16:40;;;;;;;10.07;7.60;;;17.60;99.90;;;;;;10422631;28;20220;-74
2022/09/12 07:21:41;;;;;;;10.47;8.13;;;17.80;99.90;;;;;;10436928;28;20778;-73
2022/09/12 07:26:42;;;;;;;10.43;8.10;;;17.90;99.90;;;;;;10420938;28;20295;-73
2022/09/12 07:31:44;;;;;;;10.13;8.43;;;18.10;99.90;;;;;;10428861;28;20230;-73
2022/09/12 07:36:44;;;;;;;12.03;8.40;;;18.40;99.90;;;;;;10422147;28;20217;-74
2022/09/12 07:41:45;;;;;;;9.47;8.27;;;18.60;99.90;;;;;;10435588;28;20213;-73
2022/09/12 07:46:45;;;;;;;10.73;7.97;;;19.00;99.90;;;;;;10421674;28;20310;-75
2022/09/12 07:51:46;;;;;;;8.57;7.30;;;20.20;99.90;;;;;;10428640;28;20307;-73
2022/09/12 07:56:46;;;;;;;8.63;7.60;;;23.40;99.90;;;;;;10429251;28;20585;-73
2022/09/12 08:01:50;;;;;;;10.03;7.77;;;25.70;99.90;;;;;;10432631;28;20681;-73
2022/09/12 08:06:51;;;;;;;9.57;7.23;;;27.20;94.20;;;;;;10426762;28;20220;-73
2022/09/12 08:11:51;;;;;;;9.47;7.57;;;28.70;85.50;;;;;;10426155;28;20309;-73
2022/09/12 08:16:52;;;;;;;9.43;7.50;;;28.80;77.70;;;;;;10407222;28;20252;-73
2022/09/12 08:21:53;;;;;;;8.47;7.10;;;29.00;74.90;;;;;;10397843;28;20232;-71
2022/09/12 08:26:56;;;;;;;7.33;6.63;;;29.20;72.80;;;;;;10395814;28;20226;-73
2022/09/12 08:31:57;;;;;;;7.80;7.00;;;29.20;70.80;;;;;;10393462;28;20225;-73
2022/09/12 08:37:00;;;;;;;7.77;6.30;;;28.80;70.40;;;;;;10398161;28;20216;-72
2022/09/12 08:42:03;;;;;;;7.43;6.63;;;29.40;68.40;;;;;;10401519;28;20650;-73
2022/09/12 08:47:25;;;;;;;9.73;6.80;;;30.60;62.70;;;;;;10396461;28;20284;-72
2022/09/12 08:53:03;;;;;;;7.60;6.70;;;30.70;60.90;;;;;;10396280;28;20224;-73
2022/09/12 08:58:15;;;;;;;5.97;5.47;;;31.60;57.80;;;;;;10387389;28;20216;-73
2022/09/12 09:03:34;;;;;;;5.83;5.07;;;31.70;57.00;;;;;;10390531;28;20240;-73
2022/09/12 09:09:03;;;;;;;8.23;5.87;;;32.20;56.50;;;;;;10397330;28;20221;-73
2022/09/12 09:19:57;;;;;;;6.03;5.37;;;33.80;52.20;;;;;;10400202;28;20224;-73
2022/09/12 09:25:05;;;;;;;6.73;5.20;;;33.80;50.20;;;;;;10395360;28;20298;-73
2022/09/12 09:30:14;;;;;;;5.50;4.63;;;32.70;51.80;;;;;;10392223;28;20213;-73
2022/09/12 09:35:42;;;;;;;8.70;4.90;;;34.60;50.00;;;;;;10390605;28;20204;-73
2022/09/12 09:41:00;;;;;;;6.27;5.30;;;35.90;46.60;;;;;;10396867;28;20679;-73
2022/09/12 09:46:04;;;;;;;5.07;4.47;;;33.30;46.80;;;;;;10398108;28;20257;-73
2022/09/12 09:51:06;;;;;;;8.90;4.93;;;32.50;48.20;;;;;;10396262;28;20320;-73
2022/09/12 09:56:31;;;;;;;5.20;4.70;;;32.00;48.60;;;;;;10392163;28;20232;-73
2022/09/12 10:01:33;;;;;;;4.97;4.40;;;32.00;47.40;;;;;;10389693;28;20228;-73
2022/09/12 10:06:39;;;;;;;5.80;5.30;;;31.10;48.80;;;;;;10403859;28;20236;-73
2022/09/12 10:11:40;;;;;;;6.23;5.03;;;30.90;50.30;;;;;;10387916;28;20289;-73
2022/09/12 10:16:52;;;;;;;5.43;4.97;;;29.80;51.60;;;;;;10396298;28;20676;-73
2022/09/12 10:21:55;;;;;;;5.30;4.73;;;30.20;50.60;;;;;;10389266;28;20256;-72
2022/09/12 10:27:11;;;;;;;6.43;4.47;;;31.20;49.70;;;;;;10393345;28;20217;-73
2022/09/12 10:32:20;;;;;;;4.57;4.07;;;33.60;47.00;;;;;;10390986;28;20237;-73
2022/09/12 10:37:37;;;;;;;5.00;4.27;;;35.80;41.90;;;;;;10396501;28;20224;-73
2022/09/12 10:42:58;;;;;;;5.67;4.40;;;35.10;42.70;;;;;;10390093;28;20296;-72
2022/09/12 10:48:02;;;;;;;5.80;5.20;;;34.40;43.30;;;;;;10391990;28;20242;-73
2022/09/12 10:53:27;;;;;;;5.10;4.60;;;34.20;42.90;;;;;;10391508;28;20256;-73
2022/09/12 10:58:58;;;;;;;4.80;4.30;;;33.50;45.30;;;;;;10395067;28;20221;-73
2022/09/12 11:04:17;;;;;;;6.07;5.57;;;33.70;45.80;;;;;;10392519;28;20239;-73
2022/09/12 11:09:46;;;;;;;4.53;4.13;;;32.90;45.70;;;;;;10398658;28;20216;-74
2022/09/12 11:14:59;;;;;;;6.50;5.17;;;34.60;43.30;;;;;;10387700;28;20222;-73
2022/09/12 11:20:24;;;;;;;5.50;5.07;;;32.50;46.10;;;;;;10393434;28;20228;-73
2022/09/12 11:25:47;;;;;;;5.90;4.83;;;30.00;51.40;;;;;;10387478;28;20270;-73
2022/09/12 11:31:11;;;;;;;5.73;5.23;;;29.00;54.00;;;;;;10387101;28;20311;-74
2022/09/12 11:36:34;;;;;;;6.83;5.30;;;28.80;54.90;;;;;;10382812;28;20223;-73
2022/09/12 11:41:38;;;;;;;5.57;5.03;;;28.60;55.60;;;;;;10393723;28;20295;-73
2022/09/12 11:46:42;;;;;;;6.03;5.43;;;28.50;56.20;;;;;;10385017;28;20224;-73
2022/09/12 11:52:22;;;;;;;7.50;5.37;;;28.60;55.60;;;;;;10393789;28;20759;-73
2022/09/12 11:57:41;;;;;;;7.10;5.20;;;28.00;56.90;;;;;;10349257;28;20232;-73
2022/09/12 12:03:16;;;;;;;9.60;6.20;;;27.20;59.10;;;;;;10386628;28;20233;-72
2022/09/12 12:08:17;;;;;;;5.13;4.63;;;26.90;59.30;;;;;;10398022;28;20257;-73
2022/09/12 12:13:25;;;;;;;5.93;4.70;;;26.90;60.40;;;;;;10403559;28;20225;-72
2022/09/12 12:18:28;;;;;;;6.37;5.27;;;26.90;60.00;;;;;;10398341;28;20279;-72
2022/09/12 12:23:32;;;;;;;5.87;5.30;;;27.00;59.70;;;;;;10399878;28;20229;-72
2022/09/12 12:28:43;;;;;;;5.10;4.63;;;26.90;60.00;;;;;;10397273;28;20580;-72
2022/09/12 12:33:46;;;;;;;5.93;5.17;;;27.00;60.00;;;;;;10392421;28;20214;-74
2022/09/12 12:38:47;;;;;;;7.53;5.23;;;26.90;60.10;;;;;;10398764;28;20724;-72
2022/09/12 12:43:53;;;;;;;4.60;4.20;;;26.70;60.40;;;;;;10391033;28;20228;-73
2022/09/12 12:49:01;;;;;;;6.00;4.30;;;26.40;61.90;;;;;;10404384;28;20296;-73
2022/09/12 12:54:06;;;;;;;4.70;4.30;;;26.40;60.80;;;;;;10392576;28;20692;-72
2022/09/12 12:59:20;;;;;;;8.60;4.63;;;26.40;60.60;;;;;;10395102;28;20730;-73
2022/09/12 13:04:25;;;;;;;5.00;4.50;;;26.00;60.60;;;;;;10395567;28;20232;-72
2022/09/12 13:09:30;;;;;;;5.10;4.60;;;25.60;63.30;;;;;;10392395;28;20217;-72
2022/09/12 13:14:45;;;;;;;5.90;4.30;;;25.40;63.90;;;;;;10395787;28;20227;-72
2022/09/12 13:19:47;;;;;;;4.77;4.37;;;25.20;62.60;;;;;;10405097;28;20220;-73
2022/09/12 13:24:51;;;;;;;5.47;4.40;;;25.30;64.10;;;;;;10390293;28;20251;-73
2022/09/12 13:30:16;;;;;;;4.53;4.10;;;25.20;64.50;;;;;;10395313;28;20224;-73
2022/09/12 13:35:42;;;;;;;5.37;4.00;;;25.10;63.70;;;;;;10394410;28;20304;-73
2022/09/12 13:41:19;;;;;;;4.93;4.13;;;25.10;65.20;;;;;;10389279;28;20287;-73
2022/09/12 13:46:31;;;;;;;4.20;3.90;;;24.90;64.90;;;;;;10389610;28;20221;-73
2022/09/12 13:51:32;;;;;;;5.30;4.60;;;24.80;65.80;;;;;;10391326;28;20217;-73
2022/09/12 13:56:32;;;;;;;4.50;4.10;;;24.60;67.40;;;;;;10395101;28;20307;-72
2022/09/12 14:01:55;;;;;;;4.43;4.03;;;24.70;66.20;;;;;;10389018;28;20235;-71
2022/09/12 14:06:56;;;;;;;4.27;3.87;;;24.80;65.80;;;;;;10394143;28;20252;-72
2022/09/12 14:11:57;;;;;;;4.20;3.90;;;24.90;65.00;;;;;;10394964;28;20252;-72
2022/09/12 14:17:17;;;;;;;3.80;3.50;;;25.00;65.10;;;;;;10393233;28;20219;-73
2022/09/12 14:22:17;;;;;;;5.03;3.70;;;25.10;63.60;;;;;;10387564;28;20318;-73
2022/09/12 14:27:24;;;;;;;4.20;3.87;;;25.10;63.30;;;;;;10398314;28;20270;-72
2022/09/12 14:32:25;;;;;;;4.23;3.80;;;25.00;63.80;;;;;;10389349;28;20255;-73
2022/09/12 14:37:25;;;;;;;4.00;3.70;;;24.80;63.80;;;;;;10391081;28;20220;-74
2022/09/12 14:42:30;;;;;;;3.43;3.13;;;24.70;65.20;;;;;;10390772;28;20938;-72
2022/09/12 14:47:39;;;;;;;4.03;3.23;;;24.90;65.30;;;;;;10389188;28;20715;-73
2022/09/12 14:52:40;;;;;;;4.40;4.00;;;25.00;63.70;;;;;;10395236;28;20228;-72
2022/09/12 14:57:43;;;;;;;3.10;2.90;;;25.00;62.90;;;;;;10392938;28;20239;-72
2022/09/12 15:02:44;;;;;;;4.23;3.33;;;24.90;63.60;;;;;;10385739;28;20275;-74
2022/09/12 15:07:52;;;;;;;3.70;3.40;;;24.90;62.50;;;;;;10394046;28;20263;-73
2022/09/12 15:13:13;;;;;;;4.47;3.50;;;24.80;63.30;;;;;;10394353;28;20332;-72
2022/09/12 15:18:14;;;;;;;3.60;3.30;;;24.60;64.00;;;;;;10397061;28;20209;-73
2022/09/12 15:23:28;;;;;;;3.63;3.33;;;24.60;63.90;;;;;;10393361;28;20778;-73
2022/09/12 15:28:30;;;;;;;3.53;3.33;;;24.50;64.70;;;;;;10407631;28;20629;-72
2022/09/12 15:33:31;;;;;;;3.63;3.33;;;24.50;64.70;;;;;;10391650;28;20657;-72
2022/09/12 15:38:31;;;;;;;3.37;3.17;;;24.40;65.70;;;;;;10399305;28;20221;-72
2022/09/12 15:43:38;;;;;;;3.30;3.10;;;24.40;64.70;;;;;;10400251;28;20297;-73
2022/09/12 15:48:38;;;;;;;3.60;3.30;;;24.30;65.20;;;;;;10406544;28;20209;-73
2022/09/12 15:53:39;;;;;;;3.13;2.93;;;24.20;65.00;;;;;;10401932;28;20645;-72
2022/09/12 15:58:40;;;;;;;3.90;2.90;;;24.10;66.30;;;;;;10409003;28;20219;-72
2022/09/12 16:03:41;;;;;;;2.90;2.70;;;24.00;66.60;;;;;;10398319;28;20761;-71
2022/09/12 16:08:42;;;;;;;3.30;2.80;;;24.00;66.30;;;;;;10407250;28;20217;-69
2022/09/12 16:13:42;;;;;;;3.00;2.80;;;23.90;66.10;;;;;;10407678;28;20339;-71
2022/09/12 16:18:43;;;;;;;2.90;2.70;;;23.80;65.80;;;;;;10401986;28;20334;-72
2022/09/12 16:23:46;;;;;;;2.90;2.70;;;23.60;66.30;;;;;;10398004;28;20232;-70
2022/09/12 16:28:47;;;;;;;2.80;2.60;;;23.50;66.70;;;;;;10392612;28;20210;-70
2022/09/12 16:33:47;;;;;;;4.70;2.80;;;23.40;66.90;;;;;;10390542;28;20231;-69
2022/09/12 16:38:50;;;;;;;3.70;2.60;;;23.30;67.50;;;;;;10397659;28;20240;-69
2022/09/12 16:43:51;;;;;;;3.13;2.83;;;23.20;69.30;;;;;;10406605;28;20224;-69
2022/09/12 16:48:54;;;;;;;3.33;2.77;;;23.10;69.10;;;;;;10404465;28;20592;-69
2022/09/12 16:53:55;;;;;;;2.70;2.50;;;22.90;69.80;;;;;;10405361;28;20221;-71
2022/09/12 16:58:55;;;;;;;3.00;2.70;;;22.70;70.30;;;;;;10399150;28;21026;-69
2022/09/12 17:03:57;;;;;;;3.10;2.80;;;22.50;70.90;;;;;;10400795;28;20638;-70
2022/09/12 17:08:59;;;;;;;3.00;2.70;;;22.30;71.60;;;;;;10401560;28;20213;-70
2022/09/12 17:14:01;;;;;;;2.77;2.40;;;22.10;73.40;;;;;;10400010;28;20220;-70
2022/09/12 17:19:02;;;;;;;2.60;2.40;;;21.80;73.60;;;;;;10390524;28;20248;-70
2022/09/12 17:24:03;;;;;;;3.77;2.60;;;21.50;74.10;;;;;;10398133;28;20754;-71
2022/09/12 17:29:04;;;;;;;4.43;3.07;;;21.30;75.60;;;;;;10396283;28;20270;-70
2022/09/12 17:34:04;;;;;;;3.60;3.30;;;21.20;78.00;;;;;;10400933;28;20632;-71
2022/09/12 17:39:05;;;;;;;3.20;2.80;;;21.10;80.20;;;;;;10395720;28;20221;-70
2022/09/12 17:44:06;;;;;;;2.87;2.57;;;20.90;79.50;;;;;;10397522;28;20230;-70
2022/09/12 17:49:12;;;;;;;2.60;2.40;;;20.70;79.80;;;;;;10397759;28;20295;-70
2022/09/12 17:54:15;;;;;;;5.00;3.80;;;20.50;80.60;;;;;;10396735;28;20330;-70
2022/09/12 17:59:19;;;;;;;3.80;3.50;;;20.40;87.00;;;;;;10402907;28;20279;-69
2022/09/12 18:04:22;;;;;;;5.37;3.57;;;20.20;87.70;;;;;;10400630;28;20274;-70
2022/09/12 18:09:26;;;;;;;3.43;3.13;;;20.00;90.70;;;;;;10393779;28;20416;-70
2022/09/12 18:14:27;;;;;;;6.30;3.87;;;19.90;92.00;;;;;;10396704;28;20219;-70
2022/09/12 18:19:28;;;;;;;4.83;4.33;;;19.80;94.10;;;;;;10398844;28;20731;-70
2022/09/12 18:24:32;;;;;;;4.97;4.30;;;19.60;96.40;;;;;;10406505;28;20892;-70
2022/09/12 18:29:32;;;;;;;6.50;4.43;;;19.50;99.90;;;;;;10401360;28;20216;-70
2022/09/12 18:34:33;;;;;;;4.73;4.00;;;19.30;99.90;;;;;;10392749;28;20683;-70
2022/09/12 18:39:34;;;;;;;5.27;4.77;;;19.20;99.90;;;;;;10393407;28;20227;-70
2022/09/12 18:44:34;;;;;;;5.30;4.80;;;19.10;99.90;;;;;;10398082;28;20228;-69
2022/09/12 18:49:35;;;;;;;6.33;4.93;;;19.00;99.90;;;;;;10404595;28;20216;-71
2022/09/12 18:54:36;;;;;;;7.87;4.90;;;18.90;99.90;;;;;;10396419;28;20220;-70
2022/09/12 18:59:37;;;;;;;5.60;4.93;;;18.80;99.90;;;;;;10391633;28;20226;-71
2022/09/12 19:04:37;;;;;;;6.37;5.70;;;18.70;99.90;;;;;;10392490;28;20230;-70
2022/09/12 19:09:38;;;;;;;7.27;5.93;;;18.60;99.90;;;;;;10399959;28;20213;-70
2022/09/12 19:14:39;;;;;;;6.67;5.30;;;18.60;99.90;;;;;;10391362;28;20215;-70
2022/09/12 19:19:39;;;;;;;6.63;6.03;;;18.50;99.90;;;;;;10407271;28;20963;-70
2022/09/12 19:24:40;;;;;;;6.50;5.80;;;18.40;99.90;;;;;;10393111;28;20223;-69
2022/09/12 19:29:40;;;;;;;5.90;5.30;;;18.40;99.90;;;;;;10400650;28;20817;-71
2022/09/12 19:34:41;;;;;;;6.10;5.60;;;18.30;99.90;;;;;;10391304;28;20228;-70
2022/09/12 19:39:43;;;;;;;6.80;5.87;;;18.20;99.90;;;;;;10398031;28;20237;-70
2022/09/12 19:44:43;;;;;;;6.20;5.57;;;18.20;99.90;;;;;;10394160;28;20722;-71
2022/09/12 19:49:47;;;;;;;9.13;6.27;;;18.10;99.90;;;;;;10390576;28;20220;-70
2022/09/12 19:54:48;;;;;;;6.53;5.87;;;18.10;99.90;;;;;;10405048;28;20227;-70
2022/09/12 19:59:48;;;;;;;8.17;5.57;;;18.00;99.90;;;;;;10404986;28;20222;-69
2022/09/12 20:04:49;;;;;;;8.40;5.60;;;17.90;99.90;;;;;;10397643;28;20662;-68
2022/09/12 20:09:50;;;;;;;7.37;6.27;;;17.90;99.90;;;;;;10395551;28;20318;-68
2022/09/12 20:14:50;;;;;;;5.90;5.40;;;17.90;99.90;;;;;;10400775;28;20219;-67
2022/09/12 20:19:54;;;;;;;5.50;4.93;;;17.80;99.90;;;;;;10411621;28;20226;-73
2022/09/12 20:24:54;;;;;;;6.20;5.60;;;17.80;99.90;;;;;;10410656;28;20232;-71
2022/09/12 20:29:57;;;;;;;7.07;5.67;;;17.70;99.90;;;;;;10407613;28;20709;-69
2022/09/12 20:34:57;;;;;;;6.80;5.20;;;17.80;99.90;;;;;;10407026;28;20226;-71
2022/09/12 20:39:58;;;;;;;7.23;5.00;;;17.90;99.90;;;;;;10401945;28;20218;-73
2022/09/12 20:44:58;;;;;;;5.43;4.80;;;17.90;99.90;;;;;;10396890;28;20218;-73
2022/09/12 20:50:02;;;;;;;6.93;5.57;;;17.80;99.90;;;;;;10393402;28;20226;-73
2022/09/12 20:55:03;;;;;;;7.10;5.70;;;17.70;99.90;;;;;;10397379;28;20234;-74
2022/09/12 21:00:09;;;;;;;7.43;5.33;;;17.60;99.90;;;;;;10409211;28;20222;-74
2022/09/12 21:05:10;;;;;;;6.80;4.87;;;17.60;99.90;;;;;;10397541;28;20329;-74
2022/09/12 21:10:11;;;;;;;6.53;4.87;;;17.70;99.90;;;;;;10399086;28;20334;-74
2022/09/12 21:15:12;;;;;;;6.13;4.47;;;17.80;99.90;;;;;;10399204;28;20555;-74
2022/09/12 21:20:12;;;;;;;6.50;4.50;;;17.90;99.90;;;;;;10397979;28;20190;-73
2022/09/12 21:25:13;;;;;;;6.57;4.00;;;17.90;99.90;;;;;;10399859;28;20271;-74
2022/09/12 21:30:14;;;;;;;4.47;4.07;;;18.00;99.90;;;;;;10401773;28;20186;-73
2022/09/12 21:35:15;;;;;;;4.10;3.70;;;17.90;99.90;;;;;;10400047;28;20195;-73
2022/09/12 21:40:15;;;;;;;4.33;3.33;;;17.90;99.90;;;;;;10398819;28;20182;-73
2022/09/12 21:45:16;;;;;;;8.17;3.50;;;17.80;99.90;;;;;;10404389;28;20256;-74
2022/09/12 21:50:17;;;;;;;3.60;3.23;;;17.90;99.90;;;;;;10405262;28;20709;-74
2022/09/12 21:55:18;;;;;;;3.93;3.10;;;17.90;99.90;;;;;;10403419;28;20280;-73
2022/09/12 22:00:19;;;;;;;3.40;3.10;;;17.80;99.90;;;;;;10398889;28;20195;-73
2022/09/12 22:05:23;;;;;;;4.73;3.67;;;17.70;99.90;;;;;;10399128;28;20209;-73
2022/09/12 22:10:24;;;;;;;3.93;3.40;;;17.60;99.90;;;;;;10393819;28;20564;-73
2022/09/12 22:15:24;;;;;;;4.60;3.67;;;17.70;99.90;;;;;;10400694;28;20218;-74
2022/09/12 22:20:25;;;;;;;6.30;4.33;;;17.60;99.90;;;;;;10399660;28;20220;-73
2022/09/12 22:25:26;;;;;;;8.10;5.03;;;17.50;99.90;;;;;;10406292;28;21037;-73
2022/09/12 22:30:26;;;;;;;4.60;4.13;;;17.40;99.90;;;;;;10398335;28;20306;-74
2022/09/12 22:35:27;;;;;;;7.87;4.70;;;17.20;99.90;;;;;;10401162;28;20219;-74
2022/09/12 22:40:27;;;;;;;5.17;4.67;;;17.10;99.90;;;;;;10393950;28;20300;-74
2022/09/12 22:45:28;;;;;;;6.80;5.20;;;16.90;99.90;;;;;;10400783;28;20743;-73
2022/09/12 22:50:29;;;;;;;7.80;5.30;;;16.80;99.90;;;;;;10402408;28;20217;-73
2022/09/12 22:55:30;;;;;;;8.83;6.30;;;16.70;99.90;;;;;;10413522;28;20237;-75
2022/09/12 23:00:30;;;;;;;7.93;5.93;;;16.60;99.90;;;;;;10403977;28;20268;-73
2022/09/12 23:05:31;;;;;;;7.20;5.60;;;16.50;99.90;;;;;;10415762;28;20229;-73
2022/09/12 23:10:34;;;;;;;7.70;6.20;;;16.40;99.90;;;;;;10393438;28;20233;-73
2022/09/12 23:15:36;;;;;;;9.33;6.47;;;16.30;99.90;;;;;;10416411;28;20227;-74
2022/09/12 23:20:36;;;;;;;7.23;5.83;;;16.20;99.90;;;;;;10399028;28;20297;-74
2022/09/12 23:25:37;;;;;;;8.37;6.27;;;16.10;99.90;;;;;;10403174;28;20323;-74
2022/09/12 23:30:38;;;;;;;9.83;7.03;;;16.10;99.90;;;;;;10395663;28;20707;-73
2022/09/12 23:35:39;;;;;;;8.40;6.00;;;16.10;99.90;;;;;;10398868;28;20224;-73
2022/09/12 23:40:39;;;;;;;8.80;6.53;;;16.00;99.90;;;;;;10395786;28;20303;-72
2022/09/12 23:45:40;;;;;;;8.07;6.73;;;16.00;99.90;;;;;;10398416;28;20297;-71
2022/09/12 23:50:44;;;;;;;7.67;6.57;;;16.00;99.90;;;;;;10407918;28;20221;-70
2022/09/12 23:55:45;;;;;;;7.73;6.93;;;15.90;99.90;;;;;;10407153;28;20601;-73
